﻿ProjectID	SampleID	SampleType	TaxonomyID	UniqCodeType	UniqCode	SampleName	ScientificName	CommonName	CollectionYear	CollectionMonth	CollectionDay	SamplingTimeStartEnd	SamplingTimeAMPM	SamplingDuration	WeatherStartEnd	CollectionRegion	CollectionCountry	CollectionArea	CollectionLatitudeFrom	CollectionLatitudeTo	CollectionLongitudeFrom	CollectionLongitudeTo	Sex	TissueOrgan	TissueLipid	TissueMoist	Weight	WeightUnit	Length	LengthUnit	LengthType	GrowthStage	Age	Disease	TemperatureStartEnd	WaterTemperatureStartEnd	pH	DO	EC	EC_temp	Salinity	SS	WaterDepthM	TransparencyM	WaterColor	SedimentTemperatureStartEnd	SedimentDepthM	SedimentAppearance	SedimentColor	SedimentSurfaceColor	SedimentOdor	SedimentImpurities	SedimentMoistureOnSiteAnalysis	IgnitionLossOnSiteAnalysis	SoilDepthM	FlowRate	MeanPM10	MeanTotalSuspendedParticles	HumidityStartEnd	WindDirectionStartEnd	WindSpeedMSStartEnd	AmountOfCollectedAirStartEnd	Remarks	RegisterDate	UpdateDate
PRA000048	SAA002867	ST014				SW-St.1	Water	"Surface water"	2004	2	10					Asia	Japan	"Tokyo Bay"	35.59933333		139.85																						0.5																					2017/10/25	2019/7/18
PRA000048	SAA002868	ST014				SW-St.3	Water	"Surface water"	2004	2	10					Asia	Japan	"Tokyo Bay"	35.583		140																						0.5																					2017/10/25	2019/7/18
PRA000048	SAA002869	ST014				SW-St.4	Water	"Surface water"	2004	2	10					Asia	Japan	"Tokyo Bay"	35.51583333		139.8345																						0.5																					2017/10/25	2019/7/18
PRA000048	SAA002870	ST014				SW-St.5	Water	"Surface water"	2004	2	10					Asia	Japan	"Tokyo Bay"	35.5325		139.9003333																						0.5																					2017/10/25	2019/7/18
PRA000048	SAA002871	ST014				SW-St.7	Water	"Surface water"	2004	2	9					Asia	Japan	"Tokyo Bay"	35.433		139.8336667																						0.5																					2017/10/25	2019/7/18
PRA000048	SAA002872	ST014				SW-St.8	Water	"Surface water"	2004	2	9					Asia	Japan	"Tokyo Bay"	35.45483333		139.9																						0.5																					2017/10/25	2019/7/18
PRA000048	SAA002873	ST014				SW-St.9	Water	"Surface water"	2004	2	9					Asia	Japan	"Tokyo Bay"	35.43266667		139.8498333																						0.5																					2017/10/25	2019/7/18
PRA000048	SAA002874	ST014				SW-St.10	Water	"Surface water"	2004	2	9					Asia	Japan	"Tokyo Bay"	35.3665		139.7328333																						0.5																					2017/10/25	2019/7/18
PRA000048	SAA002875	ST014				MW-St.1	Water	"Intermediate water"	2004	2	10					Asia	Japan	"Tokyo Bay"	35.59933333		139.85																						4.3																					2017/10/25	2019/7/18
PRA000048	SAA002876	ST014				MW-St.3	Water	"Intermediate water"	2004	2	10					Asia	Japan	"Tokyo Bay"	35.583		140																						6.5																					2017/10/25	2019/7/18
PRA000048	SAA002877	ST014				MW-St.4	Water	"Intermediate water"	2004	2	10					Asia	Japan	"Tokyo Bay"	35.51583333		139.8345																						12																					2017/10/25	2019/7/18
PRA000048	SAA002878	ST014				MW-St.5	Water	"Intermediate water"	2004	2	10					Asia	Japan	"Tokyo Bay"	35.5325		139.9003333																						11																					2017/10/25	2019/7/18
PRA000048	SAA002879	ST014				MW-St.7	Water	"Intermediate water"	2004	2	9					Asia	Japan	"Tokyo Bay"	35.433		139.8336667																						13.5																					2017/10/25	2019/7/18
PRA000048	SAA002880	ST014				MW-St.8	Water	"Intermediate water"	2004	2	9					Asia	Japan	"Tokyo Bay"	35.45483333		139.9																						10.4																					2017/10/25	2019/7/18
PRA000048	SAA002881	ST014				MW-St.9	Water	"Intermediate water"	2004	2	9					Asia	Japan	"Tokyo Bay"	35.43266667		139.8498333																						12.3																					2017/10/25	2019/7/18
PRA000048	SAA002882	ST014				MW-St.10	Water	"Intermediate water"	2004	2	9					Asia	Japan	"Tokyo Bay"	35.3665		139.7328333																						10																					2017/10/25	2019/7/18
PRA000048	SAA002883	ST014				BW-St.1	Water	"Bottom water"	2004	2	10					Asia	Japan	"Tokyo Bay"	35.59933333		139.85																						7																					2017/10/25	2019/7/18
PRA000048	SAA002884	ST014				BW-St.3	Water	"Bottom water"	2004	2	10					Asia	Japan	"Tokyo Bay"	35.583		140																						11																					2017/10/25	2019/7/18
PRA000048	SAA002885	ST014				BW-St.4	Water	"Bottom water"	2004	2	10					Asia	Japan	"Tokyo Bay"	35.51583333		139.8345																						22																					2017/10/25	2019/7/18
PRA000048	SAA002886	ST014				BW-St.5	Water	"Bottom water"	2004	2	10					Asia	Japan	"Tokyo Bay"	35.5325		139.9003333																						20																					2017/10/25	2019/7/18
PRA000048	SAA002887	ST014				BW-St.7	Water	"Bottom water"	2004	2	9					Asia	Japan	"Tokyo Bay"	35.433		139.8336667																						25																					2017/10/25	2019/7/18
PRA000048	SAA002888	ST014				BW-St.8	Water	"Bottom water"	2004	2	9					Asia	Japan	"Tokyo Bay"	35.45483333		139.9																						18.7																					2017/10/25	2019/7/18
PRA000048	SAA002889	ST014				BW-St.9	Water	"Bottom water"	2004	2	9					Asia	Japan	"Tokyo Bay"	35.43266667		139.8498333																						22.5																					2017/10/25	2019/7/18
PRA000048	SAA002890	ST014				BW-St.10	Water	"Bottom water"	2004	2	9					Asia	Japan	"Tokyo Bay"	35.3665		139.7328333																						18																					2017/10/25	2019/7/18
PRA000048	SAA002891	ST023				S-St.1	Sediment	"Marine sediment"	2004	2	10					Asia	Japan	"Tokyo Bay"	35.59933333		139.85																						8.5																					2017/10/25	2019/7/18
PRA000048	SAA002892	ST023				S-St.2	Sediment	"Marine sediment"	2004	2	10					Asia	Japan	"Tokyo Bay"	35.58266667		139.9343333																						13.2																					2017/10/25	2019/7/18
PRA000048	SAA002893	ST023				S-St.3	Sediment	"Marine sediment"	2004	2	10					Asia	Japan	"Tokyo Bay"	35.583		140																						13																					2017/10/25	2019/7/18
PRA000048	SAA002894	ST023				S-St.4	Sediment	"Marine sediment"	2004	2	10					Asia	Japan	"Tokyo Bay"	35.51583333		139.8345																						24																					2017/10/25	2019/7/18
PRA000048	SAA002895	ST023				S-St.5	Sediment	"Marine sediment"	2004	2	10					Asia	Japan	"Tokyo Bay"	35.5325		139.9003333																						22																					2017/10/25	2019/7/18
PRA000048	SAA002896	ST023				S-St.6	Sediment	"Marine sediment"	2004	2	10					Asia	Japan	"Tokyo Bay"	35.55		139.9993333																						19.5																					2017/10/25	2019/7/18
PRA000048	SAA002897	ST023				S-St.7	Sediment	"Marine sediment"	2004	2	9					Asia	Japan	"Tokyo Bay"	35.433		139.8336667																						27																					2017/10/25	2019/7/18
PRA000048	SAA002898	ST023				S-St.8	Sediment	"Marine sediment"	2004	2	9					Asia	Japan	"Tokyo Bay"	35.45483333		139.9																						20.7																					2017/10/25	2019/7/18
PRA000048	SAA002899	ST023				S-St.9	Sediment	"Marine sediment"	2004	2	9					Asia	Japan	"Tokyo Bay"	35.43266667		139.8498333																						24.5																					2017/10/25	2019/7/18
PRA000048	SAA002900	ST023				S-St.10	Sediment	"Marine sediment"	2004	2	9					Asia	Japan	"Tokyo Bay"	35.3665		139.7328333																						20																					2017/10/25	2019/7/18
